Time;durP1;ratioP1;P1;durP2;ratioP2;P2;SDS_P1;SDS_P2;PMS_P1;PMS_P2;Temp;Humidity;BMP_temperature;BMP_pressure;BME280_temperature;BME280_humidity;BME280_pressure;Samples;Min_cycle;Max_cycle;Signal;HPM_P1;HPM_P2
2023/11/30 00:02:04;;;;;;;3.53;0.93;;;0.40;99.90;;;;;;5037865;28;20045;-70
2023/11/30 00:04:29;;;;;;;2.10;1.35;;;0.40;99.90;;;;;;5036556;28;20405;-70
2023/11/30 00:06:55;;;;;;;3.92;1.90;;;0.40;99.90;;;;;;5036540;28;20080;-70
2023/11/30 00:09:21;;;;;;;1.40;1.15;;;0.40;99.90;;;;;;5001147;28;20081;-70
2023/11/30 00:11:46;;;;;;;1.55;1.00;;;0.40;99.90;;;;;;5038462;28;20450;-70
2023/11/30 00:14:12;;;;;;;9.95;0.75;;;0.40;99.90;;;;;;5033993;28;20041;-70
2023/11/30 00:16:38;;;;;;;3.17;1.65;;;0.40;99.90;;;;;;5004099;28;20048;-70
2023/11/30 00:19:03;;;;;;;1.73;1.35;;;0.50;99.90;;;;;;5001524;28;20038;-70
2023/11/30 00:21:29;;;;;;;1.60;1.42;;;0.50;99.90;;;;;;5024675;28;20472;-70
2023/11/30 00:23:55;;;;;;;0.95;0.82;;;0.40;99.90;;;;;;5036086;28;20053;-70
2023/11/30 00:26:20;;;;;;;1.35;1.10;;;0.40;99.90;;;;;;5034993;28;20187;-70
2023/11/30 00:28:46;;;;;;;2.30;1.33;;;0.40;99.90;;;;;;5035553;28;20081;-70
2023/11/30 00:31:12;;;;;;;1.38;0.50;;;0.40;99.90;;;;;;5019440;28;20045;-70
2023/11/30 00:33:37;;;;;;;1.90;1.45;;;0.30;99.90;;;;;;5008883;28;20482;-70
2023/11/30 00:36:07;;;;;;;2.53;1.40;;;0.30;99.90;;;;;;5041963;28;20046;-70
2023/11/30 00:38:33;;;;;;;2.65;1.30;;;0.30;99.90;;;;;;5037742;28;20042;-70
2023/11/30 00:40:58;;;;;;;2.30;1.33;;;0.30;99.90;;;;;;5004358;28;20560;-70
2023/11/30 00:43:24;;;;;;;4.78;1.65;;;0.30;99.90;;;;;;5041715;28;20056;-70
2023/11/30 00:45:50;;;;;;;2.50;1.88;;;0.30;99.90;;;;;;5037679;28;20273;-70
2023/11/30 00:48:15;;;;;;;2.70;1.58;;;0.30;99.90;;;;;;5007802;28;20041;-70
2023/11/30 00:50:41;;;;;;;2.10;1.25;;;0.30;99.90;;;;;;5035815;28;20506;-70
2023/11/30 00:53:07;;;;;;;3.28;1.30;;;0.20;99.90;;;;;;5040344;28;20046;-70
2023/11/30 00:55:33;;;;;;;1.75;1.48;;;0.20;99.90;;;;;;5036317;28;20066;-70
2023/11/30 00:57:58;;;;;;;2.55;1.77;;;0.20;99.90;;;;;;5037265;28;20042;-70
2023/11/30 01:00:24;;;;;;;2.20;1.38;;;0.20;99.90;;;;;;5035651;28;20405;-70
2023/11/30 01:02:50;;;;;;;2.45;2.10;;;0.20;99.90;;;;;;5004858;28;20049;-70
2023/11/30 01:05:15;;;;;;;1.75;1.13;;;0.20;99.90;;;;;;4997998;28;20390;-70
2023/11/30 01:07:41;;;;;;;1.80;1.23;;;0.10;99.90;;;;;;5033527;28;20042;-70
2023/11/30 01:10:07;;;;;;;2.13;1.25;;;0.10;99.90;;;;;;5003776;28;20049;-70
2023/11/30 01:12:33;;;;;;;2.90;1.80;;;0.00;99.90;;;;;;5007836;28;20042;-70
2023/11/30 01:14:59;;;;;;;3.05;1.83;;;0.00;99.90;;;;;;5000863;28;20540;-70
2023/11/30 01:17:25;;;;;;;2.03;1.35;;;0.00;99.90;;;;;;5033205;28;20204;-70
2023/11/30 01:19:51;;;;;;;4.45;2.25;;;0.00;99.90;;;;;;5037450;28;20171;-70
2023/11/30 01:22:16;;;;;;;1.48;1.25;;;0.00;99.90;;;;;;5039391;28;20142;-70
2023/11/30 01:24:42;;;;;;;3.03;2.00;;;0.00;99.90;;;;;;4999683;28;20057;-70
2023/11/30 01:27:08;;;;;;;2.25;1.65;;;0.00;99.90;;;;;;5005985;28;20099;-70
2023/11/30 01:29:33;;;;;;;1.35;1.08;;;-0.10;99.90;;;;;;5032413;28;20050;-70
2023/11/30 01:31:59;;;;;;;1.50;1.00;;;-0.10;99.90;;;;;;5035315;28;20136;-70
2023/11/30 01:34:25;;;;;;;3.55;2.15;;;-0.10;99.90;;;;;;5037337;28;20107;-70
2023/11/30 01:36:51;;;;;;;2.25;1.27;;;-0.10;99.90;;;;;;5035688;28;20238;-70
2023/11/30 01:39:16;;;;;;;2.63;1.13;;;-0.10;99.90;;;;;;5039255;28;20239;-70
2023/11/30 01:41:42;;;;;;;1.67;1.00;;;-0.10;99.90;;;;;;5036243;28;20042;-70
2023/11/30 01:44:09;;;;;;;5.18;1.63;;;-0.20;99.90;;;;;;5037723;28;20552;-70
2023/11/30 01:46:37;;;;;;;3.45;1.60;;;-0.20;99.90;;;;;;5015889;28;20524;-70
2023/11/30 01:49:06;;;;;;;2.95;2.35;;;-0.20;99.90;;;;;;5002972;28;20088;-70
2023/11/30 01:51:34;;;;;;;2.42;1.80;;;-0.10;99.90;;;;;;5033353;28;20053;-70
2023/11/30 01:54:01;;;;;;;3.60;2.60;;;-0.20;99.90;;;;;;5005668;28;20049;-70
2023/11/30 01:56:27;;;;;;;4.20;2.03;;;-0.20;99.90;;;;;;5001677;28;20045;-70
2023/11/30 01:58:53;;;;;;;2.67;1.48;;;-0.20;99.90;;;;;;5033504;28;20057;-70
2023/11/30 02:01:20;;;;;;;3.78;1.90;;;-0.30;99.90;;;;;;5006244;28;20053;-70
2023/11/30 02:03:46;;;;;;;1.60;1.35;;;-0.30;99.90;;;;;;4993008;28;20038;-71
2023/11/30 02:06:16;;;;;;;2.75;1.58;;;-0.30;99.90;;;;;;4999552;28;20048;-70
2023/11/30 02:08:43;;;;;;;4.65;3.00;;;-0.30;99.90;;;;;;5035622;28;20406;-70
2023/11/30 02:11:09;;;;;;;2.05;1.27;;;-0.30;99.90;;;;;;5032634;28;20049;-70
2023/11/30 02:13:34;;;;;;;3.22;2.05;;;-0.30;99.90;;;;;;5014782;28;20074;-70
2023/11/30 02:16:00;;;;;;;6.65;2.13;;;-0.30;99.90;;;;;;5036407;28;20042;-70
2023/11/30 02:18:26;;;;;;;3.63;2.55;;;-0.30;99.90;;;;;;5034391;28;20050;-70
2023/11/30 02:20:52;;;;;;;5.88;2.72;;;-0.20;99.90;;;;;;5035896;28;20073;-70
2023/11/30 02:23:17;;;;;;;2.88;1.83;;;-0.30;99.90;;;;;;5030606;28;20432;-70
2023/11/30 02:25:43;;;;;;;3.45;2.55;;;-0.30;99.90;;;;;;5001746;28;20095;-70
2023/11/30 02:28:14;;;;;;;1.65;1.45;;;-0.20;99.90;;;;;;5002196;28;20129;-70
2023/11/30 02:30:40;;;;;;;2.65;1.80;;;-0.20;99.90;;;;;;5033156;28;20081;-70
2023/11/30 02:33:06;;;;;;;5.35;2.40;;;-0.20;99.90;;;;;;5030682;28;20464;-70
2023/11/30 02:35:33;;;;;;;2.00;1.35;;;-0.20;99.90;;;;;;5050454;28;20038;-70
2023/11/30 02:37:58;;;;;;;3.55;2.13;;;-0.20;99.90;;;;;;5000638;28;20037;-70
2023/11/30 02:40:24;;;;;;;6.30;2.58;;;-0.20;99.90;;;;;;5030952;28;20057;-70
2023/11/30 02:42:50;;;;;;;3.03;1.88;;;-0.20;99.90;;;;;;5034746;28;20096;-70
2023/11/30 02:45:15;;;;;;;13.15;1.67;;;-0.20;99.90;;;;;;5027646;28;20073;-70
2023/11/30 02:47:41;;;;;;;1.85;1.45;;;-0.10;99.90;;;;;;5006689;28;20041;-71
2023/11/30 02:50:07;;;;;;;6.45;1.33;;;-0.10;99.90;;;;;;4998929;28;20440;-70
2023/11/30 02:52:33;;;;;;;3.10;2.08;;;-0.10;99.90;;;;;;4997491;28;20038;-70
2023/11/30 02:54:59;;;;;;;9.05;2.70;;;-0.10;99.90;;;;;;5033579;28;20138;-70
2023/11/30 02:57:25;;;;;;;3.88;2.17;;;-0.10;99.90;;;;;;5003652;28;20038;-70
2023/11/30 02:59:50;;;;;;;1.67;1.48;;;-0.10;99.90;;;;;;5030012;28;20038;-70
2023/11/30 03:02:16;;;;;;;3.25;1.88;;;-0.10;99.90;;;;;;5004810;28;20098;-70
2023/11/30 03:04:42;;;;;;;5.05;1.45;;;-0.10;99.90;;;;;;5024773;28;20402;-71
2023/11/30 03:07:07;;;;;;;2.80;2.13;;;-0.10;99.90;;;;;;5004668;28;20079;-70
2023/11/30 03:09:33;;;;;;;2.92;1.95;;;-0.10;99.90;;;;;;5034939;28;20043;-70
2023/11/30 03:11:59;;;;;;;3.42;2.25;;;0.00;99.90;;;;;;5030470;28;20041;-70
2023/11/30 03:14:25;;;;;;;4.05;2.80;;;0.00;99.90;;;;;;5033502;28;20401;-70
2023/11/30 03:16:50;;;;;;;7.88;3.53;;;0.00;99.90;;;;;;5031823;28;20046;-70
2023/11/30 03:19:16;;;;;;;1.98;1.77;;;0.00;99.90;;;;;;5030787;28;20050;-70
2023/11/30 03:21:42;;;;;;;2.78;2.47;;;0.00;99.90;;;;;;5012342;28;20053;-70
2023/11/30 03:24:08;;;;;;;3.05;2.20;;;0.00;99.90;;;;;;5041076;28;20503;-70
2023/11/30 03:26:33;;;;;;;4.15;2.38;;;0.00;99.90;;;;;;5012997;28;20057;-70
2023/11/30 03:28:59;;;;;;;2.80;2.08;;;0.00;99.90;;;;;;5033515;28;20434;-70
2023/11/30 03:31:25;;;;;;;3.92;2.78;;;0.00;99.90;;;;;;5029417;28;20483;-70
2023/11/30 03:33:50;;;;;;;1.58;1.00;;;0.10;99.90;;;;;;5037976;28;20030;-70
2023/11/30 03:36:16;;;;;;;3.17;1.13;;;0.00;99.90;;;;;;5031502;28;20065;-70
2023/11/30 03:38:42;;;;;;;2.95;1.77;;;0.00;99.90;;;;;;5021165;28;20130;-70
2023/11/30 03:41:08;;;;;;;4.57;2.17;;;0.10;99.90;;;;;;5033201;28;20058;-70
2023/11/30 03:43:33;;;;;;;2.58;1.42;;;0.10;99.90;;;;;;5032454;28;20042;-70
2023/11/30 03:45:59;;;;;;;2.53;1.67;;;0.00;99.90;;;;;;5035076;28;20099;-70
2023/11/30 03:48:25;;;;;;;2.38;1.67;;;0.00;99.90;;;;;;5041248;28;20435;-70
2023/11/30 03:50:50;;;;;;;2.13;1.80;;;0.00;99.90;;;;;;5034190;28;20064;-70
2023/11/30 03:53:16;;;;;;;2.17;1.17;;;0.00;99.90;;;;;;5002904;28;20046;-70
2023/11/30 03:55:42;;;;;;;2.13;1.33;;;0.00;99.90;;;;;;5036055;28;20247;-70
2023/11/30 03:58:07;;;;;;;1.85;1.20;;;0.00;99.90;;;;;;5035357;28;20042;-70
2023/11/30 04:00:33;;;;;;;2.38;1.48;;;0.00;99.90;;;;;;5038216;28;20494;-70
2023/11/30 04:02:59;;;;;;;2.42;1.45;;;0.00;99.90;;;;;;5036017;28;20125;-70
2023/11/30 04:05:24;;;;;;;1.52;1.05;;;-0.10;99.90;;;;;;5037816;28;20442;-70
2023/11/30 04:07:50;;;;;;;1.98;1.45;;;-0.10;99.90;;;;;;5037642;28;20054;-70
2023/11/30 04:10:16;;;;;;;0.43;0.38;;;0.00;99.90;;;;;;5041936;28;20049;-70
2023/11/30 04:12:42;;;;;;;13.88;2.17;;;0.00;99.90;;;;;;5022801;28;20077;-70
2023/11/30 04:15:08;;;;;;;7.72;1.05;;;0.00;99.90;;;;;;5036631;28;20069;-70
2023/11/30 04:17:34;;;;;;;4.60;2.00;;;0.00;99.90;;;;;;5002549;28;20069;-70
2023/11/30 04:20:00;;;;;;;1.83;0.98;;;0.00;99.90;;;;;;5035677;28;20385;-70
2023/11/30 04:22:26;;;;;;;1.48;1.02;;;0.00;99.90;;;;;;5006850;28;20034;-70
2023/11/30 04:24:51;;;;;;;1.85;1.48;;;0.00;99.90;;;;;;5003192;28;20038;-70
2023/11/30 04:27:17;;;;;;;2.47;1.60;;;0.00;99.90;;;;;;5001149;28;20037;-70
2023/11/30 04:29:43;;;;;;;2.42;1.55;;;0.00;99.90;;;;;;5035341;28;20104;-70
2023/11/30 04:32:09;;;;;;;4.55;2.38;;;0.00;99.90;;;;;;5004907;28;20367;-70
2023/11/30 04:34:34;;;;;;;3.85;2.13;;;0.00;99.90;;;;;;5017408;28;20048;-70
2023/11/30 04:37:00;;;;;;;3.40;2.08;;;0.10;99.90;;;;;;5003117;28;20038;-70
2023/11/30 04:39:26;;;;;;;3.15;1.73;;;0.10;99.90;;;;;;5019233;28;20029;-70
2023/11/30 04:41:52;;;;;;;4.93;2.45;;;0.10;99.90;;;;;;5004255;28;20466;-70
2023/11/30 04:44:20;;;;;;;4.93;2.38;;;0.10;99.90;;;;;;5033198;28;20125;-70
2023/11/30 04:46:46;;;;;;;3.38;1.80;;;0.10;99.90;;;;;;5014660;28;20069;-70
2023/11/30 04:49:11;;;;;;;2.55;1.75;;;0.10;99.90;;;;;;5016035;28;20494;-70
2023/11/30 04:51:37;;;;;;;5.80;2.42;;;0.20;99.90;;;;;;5035521;28;20528;-70
2023/11/30 04:54:03;;;;;;;3.25;2.15;;;0.20;99.90;;;;;;5034520;28;20042;-70
2023/11/30 04:56:28;;;;;;;1.48;1.10;;;0.20;99.90;;;;;;5031041;28;20038;-70
2023/11/30 04:58:54;;;;;;;5.38;2.30;;;0.20;99.90;;;;;;5038168;28;20041;-69
2023/11/30 05:01:20;;;;;;;21.13;2.72;;;0.20;99.90;;;;;;5053972;28;20042;-70
2023/11/30 05:03:46;;;;;;;16.27;2.03;;;0.30;99.90;;;;;;5002075;28;20049;-70
2023/11/30 05:06:11;;;;;;;2.83;2.17;;;0.30;99.90;;;;;;5039130;28;20072;-71
2023/11/30 05:08:37;;;;;;;4.30;2.53;;;0.20;99.90;;;;;;5039160;28;20038;-70
2023/11/30 05:11:03;;;;;;;3.58;1.92;;;0.30;99.90;;;;;;5037235;28;20037;-70
2023/11/30 05:13:28;;;;;;;2.70;2.45;;;0.30;99.90;;;;;;5039645;28;20611;-70
2023/11/30 05:15:54;;;;;;;3.08;1.77;;;0.30;99.90;;;;;;5034735;28;20108;-70
2023/11/30 05:18:20;;;;;;;2.38;1.77;;;0.30;99.90;;;;;;5041059;28;20137;-70
2023/11/30 05:20:46;;;;;;;5.57;2.53;;;0.30;99.90;;;;;;5003213;28;20050;-70
2023/11/30 05:23:11;;;;;;;2.83;2.03;;;0.30;99.90;;;;;;5003968;28;20390;-70
2023/11/30 05:25:37;;;;;;;6.35;2.60;;;0.30;99.90;;;;;;5031767;28;20085;-70
2023/11/30 05:28:05;;;;;;;3.15;2.08;;;0.30;99.90;;;;;;5005101;28;20053;-70
2023/11/30 05:30:32;;;;;;;5.53;3.70;;;0.30;99.90;;;;;;5016988;28;20356;-70
2023/11/30 05:32:57;;;;;;;5.78;3.30;;;0.40;99.90;;;;;;5033013;28;20045;-70
2023/11/30 05:35:23;;;;;;;4.53;2.78;;;0.40;99.90;;;;;;5033477;28;20483;-70
2023/11/30 05:37:49;;;;;;;5.28;3.03;;;0.40;99.90;;;;;;5006851;28;20034;-70
2023/11/30 05:40:16;;;;;;;3.10;1.67;;;0.40;99.90;;;;;;5005555;28;20046;-70
2023/11/30 05:42:42;;;;;;;6.22;3.42;;;0.40;99.90;;;;;;5036525;28;20498;-70
2023/11/30 05:45:08;;;;;;;3.22;2.03;;;0.40;99.90;;;;;;5029785;28;20046;-70
2023/11/30 05:47:34;;;;;;;2.28;1.65;;;0.40;99.90;;;;;;5003234;28;20041;-70
2023/11/30 05:49:59;;;;;;;3.97;2.22;;;0.50;99.90;;;;;;5034659;28;20069;-70
2023/11/30 05:52:25;;;;;;;3.97;2.47;;;0.50;99.90;;;;;;5038286;28;20069;-70
2023/11/30 05:54:51;;;;;;;2.88;2.15;;;0.50;99.90;;;;;;5034270;28;20041;-70
2023/11/30 05:57:16;;;;;;;3.58;2.72;;;0.50;99.90;;;;;;5003772;28;20033;-70
2023/11/30 05:59:42;;;;;;;3.08;2.20;;;0.60;99.90;;;;;;5035295;28;20187;-70
2023/11/30 06:02:10;;;;;;;2.95;1.50;;;0.60;99.90;;;;;;5035492;28;20442;-70
2023/11/30 06:04:37;;;;;;;2.90;1.75;;;0.60;99.90;;;;;;5038962;28;20394;-70
2023/11/30 06:07:02;;;;;;;5.72;2.88;;;0.60;99.90;;;;;;5033367;28;20164;-70
2023/11/30 06:09:28;;;;;;;4.18;2.55;;;0.60;99.90;;;;;;5036532;28;20069;-70
2023/11/30 06:11:54;;;;;;;3.63;1.75;;;0.60;99.90;;;;;;5035041;28;20611;-70
2023/11/30 06:14:19;;;;;;;4.75;1.63;;;0.60;99.90;;;;;;5038663;28;20073;-67
2023/11/30 06:16:45;;;;;;;3.15;1.98;;;0.60;99.90;;;;;;5015660;28;20093;-69
2023/11/30 06:19:11;;;;;;;2.10;1.60;;;0.50;99.90;;;;;;5038338;28;20044;-69
2023/11/30 06:21:40;;;;;;;3.97;1.60;;;0.40;99.90;;;;;;5002136;28;20050;-69
2023/11/30 06:24:06;;;;;;;2.67;2.17;;;0.50;99.90;;;;;;5004436;28;20038;-69
2023/11/30 06:26:32;;;;;;;21.52;1.95;;;0.50;99.90;;;;;;5035014;28;20045;-69
2023/11/30 06:28:58;;;;;;;6.45;2.60;;;0.50;99.90;;;;;;5037522;28;20140;-69
2023/11/30 06:31:24;;;;;;;2.92;2.28;;;0.40;99.90;;;;;;5028426;28;20038;-69
2023/11/30 06:33:50;;;;;;;3.97;2.08;;;0.40;99.90;;;;;;5033161;28;20033;-69
2023/11/30 06:36:16;;;;;;;2.38;1.58;;;0.40;99.90;;;;;;5002542;28;20038;-69
2023/11/30 06:38:44;;;;;;;4.35;2.65;;;0.40;99.90;;;;;;5034208;28;20563;-69
2023/11/30 06:41:11;;;;;;;2.35;1.63;;;0.40;99.90;;;;;;5033595;28;20191;-69
2023/11/30 06:43:37;;;;;;;3.42;1.83;;;0.50;99.90;;;;;;5000959;28;20089;-69
2023/11/30 06:46:03;;;;;;;13.43;2.50;;;0.50;99.90;;;;;;5035698;28;20120;-69
2023/11/30 06:48:28;;;;;;;5.53;1.90;;;0.50;99.90;;;;;;5038821;28;20703;-69
2023/11/30 06:50:54;;;;;;;3.15;2.17;;;0.50;99.90;;;;;;5035480;28;20513;-69
2023/11/30 06:53:20;;;;;;;2.65;1.88;;;0.50;99.90;;;;;;5032479;28;20038;-69
2023/11/30 06:55:45;;;;;;;2.30;1.08;;;0.50;99.90;;;;;;5004531;28;20056;-69
2023/11/30 06:58:11;;;;;;;5.13;2.42;;;0.50;99.90;;;;;;5003182;28;20054;-69
2023/11/30 07:00:37;;;;;;;5.45;2.92;;;0.50;99.90;;;;;;5003880;28;20688;-69
2023/11/30 07:03:03;;;;;;;3.30;2.35;;;0.50;99.90;;;;;;5028838;28;20038;-69
2023/11/30 07:05:28;;;;;;;3.78;2.17;;;0.60;99.90;;;;;;5017524;28;20050;-69
2023/11/30 07:07:54;;;;;;;4.90;2.85;;;0.60;99.90;;;;;;5031023;28;20484;-70
2023/11/30 07:10:20;;;;;;;5.68;2.65;;;0.70;99.90;;;;;;5033766;28;20041;-70
2023/11/30 07:12:46;;;;;;;3.35;1.83;;;0.60;99.90;;;;;;5034232;28;20104;-70
2023/11/30 07:15:12;;;;;;;4.97;2.72;;;0.60;99.90;;;;;;5055534;28;20038;-70
2023/11/30 07:17:37;;;;;;;5.18;2.85;;;0.70;99.90;;;;;;4999941;28;20054;-70
2023/11/30 07:20:04;;;;;;;3.35;2.50;;;0.60;99.90;;;;;;5035055;28;20454;-70
2023/11/30 07:22:30;;;;;;;5.03;2.10;;;0.70;99.90;;;;;;5005958;28;20056;-70
2023/11/30 07:24:56;;;;;;;9.63;2.83;;;0.70;99.90;;;;;;5001342;28;20502;-70
2023/11/30 07:27:23;;;;;;;4.32;2.72;;;0.70;99.90;;;;;;5008145;28;20112;-71
2023/11/30 07:29:48;;;;;;;3.85;2.65;;;0.70;99.90;;;;;;5031474;28;20418;-70
2023/11/30 07:32:17;;;;;;;3.25;2.05;;;0.70;99.90;;;;;;5006975;28;20053;-70
2023/11/30 07:34:46;;;;;;;3.97;1.77;;;0.90;99.90;;;;;;5035698;28;20101;-70
2023/11/30 07:37:17;;;;;;;4.18;2.33;;;0.80;99.90;;;;;;5002119;28;20037;-70
2023/11/30 07:39:43;;;;;;;2.33;1.17;;;0.80;99.90;;;;;;5004157;28;20079;-70
2023/11/30 07:42:09;;;;;;;4.38;2.72;;;0.70;99.90;;;;;;5033990;28;20050;-70
2023/11/30 07:44:35;;;;;;;2.15;1.42;;;0.80;99.90;;;;;;5039078;28;20041;-70
2023/11/30 07:47:01;;;;;;;4.97;2.58;;;0.80;99.90;;;;;;5033914;28;20045;-70
2023/11/30 07:49:26;;;;;;;3.20;2.35;;;0.80;99.90;;;;;;5036719;28;20556;-71
2023/11/30 07:51:52;;;;;;;2.13;1.75;;;0.80;99.90;;;;;;5037475;28;20041;-71
2023/11/30 07:54:18;;;;;;;2.65;1.85;;;0.80;99.90;;;;;;5003558;28;20048;-71
2023/11/30 07:56:43;;;;;;;3.75;2.83;;;0.90;99.90;;;;;;5032982;28;20402;-71
2023/11/30 07:59:12;;;;;;;3.33;2.15;;;0.90;99.90;;;;;;5005686;28;20045;-71
2023/11/30 08:01:39;;;;;;;5.28;3.85;;;0.80;99.90;;;;;;5001801;28;20410;-71
2023/11/30 08:04:08;;;;;;;4.75;2.38;;;0.90;99.90;;;;;;5029380;28;20046;-71
2023/11/30 08:06:34;;;;;;;3.65;1.75;;;0.80;99.90;;;;;;5037212;28;20046;-70
2023/11/30 08:09:00;;;;;;;4.60;2.45;;;0.90;99.90;;;;;;5052800;28;20081;-70
2023/11/30 08:11:25;;;;;;;2.78;1.60;;;0.90;99.90;;;;;;5020870;28;20490;-70
2023/11/30 08:13:51;;;;;;;3.47;2.08;;;0.90;99.90;;;;;;5030901;28;20072;-70
2023/11/30 08:16:17;;;;;;;12.68;3.47;;;1.00;99.90;;;;;;5034503;28;20045;-70
2023/11/30 08:18:42;;;;;;;5.28;3.00;;;1.00;99.90;;;;;;4998687;28;20125;-70
2023/11/30 08:21:09;;;;;;;1.55;1.40;;;1.00;99.90;;;;;;5021527;28;20081;-70
2023/11/30 08:23:36;;;;;;;4.10;2.90;;;1.00;99.90;;;;;;5013851;28;20042;-71
2023/11/30 08:26:03;;;;;;;1.88;1.65;;;1.00;99.90;;;;;;5038513;28;20100;-71
2023/11/30 08:28:30;;;;;;;4.90;2.75;;;1.00;99.90;;;;;;5025423;28;20042;-70
2023/11/30 08:30:55;;;;;;;3.13;1.83;;;1.00;99.90;;;;;;5031228;28;20082;-70
2023/11/30 08:33:21;;;;;;;3.40;1.92;;;1.00;99.90;;;;;;5048946;28;20076;-70
2023/11/30 08:35:50;;;;;;;5.55;2.97;;;1.00;99.90;;;;;;4995720;28;20482;-70
2023/11/30 08:38:16;;;;;;;5.15;2.25;;;1.10;99.90;;;;;;5040000;28;20083;-70
2023/11/30 08:40:41;;;;;;;3.05;2.15;;;1.10;99.90;;;;;;4993448;28;20054;-71
2023/11/30 08:43:07;;;;;;;4.28;2.95;;;1.10;99.90;;;;;;5003923;28;20366;-71
2023/11/30 08:45:33;;;;;;;7.75;3.53;;;1.10;99.90;;;;;;5032917;28;20049;-71
2023/11/30 08:47:59;;;;;;;3.88;2.30;;;1.10;99.90;;;;;;5039856;28;20406;-71
2023/11/30 08:50:24;;;;;;;4.80;1.92;;;1.20;99.90;;;;;;5006367;28;20117;-71
2023/11/30 08:52:50;;;;;;;3.75;1.27;;;1.20;99.90;;;;;;5025490;28;20391;-71
2023/11/30 08:55:16;;;;;;;2.72;1.58;;;1.20;99.90;;;;;;5037621;28;20038;-71
2023/11/30 08:57:41;;;;;;;4.05;2.15;;;1.30;99.90;;;;;;5039772;28;20042;-71
2023/11/30 09:00:12;;;;;;;4.22;3.05;;;1.20;99.90;;;;;;5004212;28;20514;-71
2023/11/30 09:02:38;;;;;;;2.90;1.80;;;1.20;99.90;;;;;;5037686;28;20049;-71
2023/11/30 09:05:07;;;;;;;2.67;2.05;;;1.20;99.90;;;;;;5055272;28;20541;-71
2023/11/30 09:07:33;;;;;;;5.35;2.83;;;1.30;99.90;;;;;;5038008;28;20069;-71
2023/11/30 09:09:58;;;;;;;7.40;3.10;;;1.30;99.90;;;;;;5005446;28;20034;-71
2023/11/30 09:12:24;;;;;;;2.92;1.40;;;1.30;99.90;;;;;;5038051;28;20085;-71
2023/11/30 09:14:50;;;;;;;1.73;1.42;;;1.30;99.90;;;;;;5040347;28;20033;-71
2023/11/30 09:17:16;;;;;;;2.40;1.50;;;1.30;99.90;;;;;;5036941;28;20193;-71
2023/11/30 09:19:42;;;;;;;2.50;1.92;;;1.30;99.90;;;;;;5006677;28;20493;-71
2023/11/30 09:22:07;;;;;;;2.55;1.85;;;1.30;99.90;;;;;;5003381;28;20083;-72
2023/11/30 09:25:21;;;;;;;1.85;1.25;;;1.30;99.90;;;;;;5044196;28;20048;-71
2023/11/30 09:27:50;;;;;;;3.38;1.88;;;1.30;99.90;;;;;;5019646;28;20046;-71
2023/11/30 09:30:16;;;;;;;2.10;1.25;;;1.30;99.90;;;;;;5021228;28;20044;-71
2023/11/30 09:32:42;;;;;;;3.70;2.05;;;1.30;99.90;;;;;;5046121;28;20121;-72
2023/11/30 09:35:08;;;;;;;3.65;2.17;;;1.30;99.90;;;;;;5006181;28;20057;-72
2023/11/30 09:37:34;;;;;;;5.78;2.53;;;1.30;99.90;;;;;;5024716;28;20038;-72
2023/11/30 09:39:59;;;;;;;7.40;1.88;;;1.40;99.90;;;;;;5036548;28;20409;-72
2023/11/30 09:42:26;;;;;;;4.13;2.42;;;1.40;99.90;;;;;;5004578;28;20045;-72
2023/11/30 09:45:00;;;;;;;2.25;1.77;;;1.40;99.90;;;;;;5038203;28;20498;-72
2023/11/30 09:47:26;;;;;;;6.07;3.45;;;1.40;99.90;;;;;;5032975;28;20399;-72
2023/11/30 09:49:51;;;;;;;2.80;2.22;;;1.30;99.90;;;;;;5032151;28;20113;-72
2023/11/30 09:52:17;;;;;;;4.70;1.80;;;1.30;99.90;;;;;;5040180;28;20506;-72
2023/11/30 09:54:43;;;;;;;5.05;2.55;;;1.40;99.90;;;;;;5017987;28;20034;-72
2023/11/30 09:57:09;;;;;;;5.00;3.00;;;1.40;99.90;;;;;;5036099;28;20392;-72
2023/11/30 09:59:35;;;;;;;5.72;2.97;;;1.50;99.90;;;;;;5038533;28;20085;-72
2023/11/30 10:02:02;;;;;;;5.57;3.00;;;1.50;99.90;;;;;;5044371;28;20509;-72
2023/11/30 10:04:28;;;;;;;3.05;1.92;;;1.50;99.90;;;;;;5025983;28;20057;-73
2023/11/30 10:06:55;;;;;;;5.78;2.85;;;1.50;99.90;;;;;;5003946;28;20069;-72
2023/11/30 10:09:22;;;;;;;4.72;2.95;;;1.50;99.90;;;;;;5034961;28;20034;-72
2023/11/30 10:11:48;;;;;;;7.35;3.30;;;1.50;99.90;;;;;;5033422;28;20054;-73
2023/11/30 10:14:14;;;;;;;4.50;2.72;;;1.60;99.90;;;;;;5053572;28;20045;-72
2023/11/30 10:16:40;;;;;;;3.35;2.63;;;1.50;99.90;;;;;;5032532;28;20085;-72
2023/11/30 10:19:06;;;;;;;4.13;2.80;;;1.60;99.90;;;;;;4996058;28;20555;-73
2023/11/30 10:21:32;;;;;;;4.50;2.97;;;1.50;99.90;;;;;;5036195;28;20046;-72
2023/11/30 10:23:58;;;;;;;1.98;1.17;;;1.50;99.90;;;;;;5038229;28;20088;-72
2023/11/30 10:26:24;;;;;;;5.55;3.17;;;1.50;99.90;;;;;;4997333;28;20042;-73
2023/11/30 10:28:54;;;;;;;8.45;3.80;;;1.60;99.90;;;;;;5033492;28;20045;-73
2023/11/30 10:31:24;;;;;;;11.18;4.20;;;1.60;99.90;;;;;;5034980;28;20046;-73
2023/11/30 10:33:55;;;;;;;4.05;2.95;;;1.60;99.90;;;;;;5039881;28;20084;-73
2023/11/30 10:36:27;;;;;;;5.00;3.65;;;1.50;99.90;;;;;;5036951;28;20038;-73
2023/11/30 10:39:01;;;;;;;3.88;2.22;;;1.50;99.90;;;;;;5029722;28;20150;-73
2023/11/30 10:41:36;;;;;;;3.58;3.05;;;1.50;99.90;;;;;;5039824;28;20455;-73
2023/11/30 10:44:03;;;;;;;8.65;3.53;;;1.40;99.90;;;;;;5035333;28;20046;-73
2023/11/30 10:46:30;;;;;;;4.80;2.55;;;1.50;99.90;;;;;;5032610;28;20147;-73
2023/11/30 10:48:56;;;;;;;3.97;2.33;;;1.60;99.90;;;;;;5035737;28;20052;-73
2023/11/30 10:51:23;;;;;;;14.00;2.97;;;1.60;99.90;;;;;;5000505;28;20077;-73
2023/11/30 10:53:55;;;;;;;3.83;2.45;;;1.60;99.90;;;;;;5016903;28;20046;-73
2023/11/30 10:56:22;;;;;;;5.35;2.25;;;1.70;99.90;;;;;;5037157;28;20034;-74
2023/11/30 10:58:47;;;;;;;3.30;2.13;;;1.70;99.90;;;;;;5005577;28;20052;-73
2023/11/30 11:01:18;;;;;;;5.78;2.90;;;1.80;99.90;;;;;;5039461;28;20475;-74
2023/11/30 11:03:52;;;;;;;5.43;2.72;;;1.70;99.90;;;;;;5054470;28;20042;-74
2023/11/30 11:06:24;;;;;;;2.90;1.95;;;1.80;99.90;;;;;;5018190;28;20045;-74
2023/11/30 11:09:01;;;;;;;3.13;2.05;;;1.80;99.90;;;;;;5041909;28;20117;-75
2023/11/30 11:11:30;;;;;;;4.32;2.17;;;1.70;99.90;;;;;;5038098;28;20050;-74
2023/11/30 11:13:56;;;;;;;4.53;2.40;;;1.70;99.90;;;;;;5029437;28;20029;-75
2023/11/30 11:16:37;;;;;;;4.05;1.85;;;1.70;99.90;;;;;;5000567;28;20096;-75
2023/11/30 11:19:05;;;;;;;25.23;2.55;;;1.70;99.90;;;;;;4980059;28;20061;-75
2023/11/30 11:21:36;;;;;;;5.93;3.08;;;1.60;99.90;;;;;;5007095;28;20057;-75
2023/11/30 11:24:06;;;;;;;4.03;2.05;;;1.60;99.90;;;;;;5007867;28;20509;-75
2023/11/30 11:26:48;;;;;;;4.88;2.88;;;1.60;99.90;;;;;;5037320;28;20080;-75
2023/11/30 11:29:16;;;;;;;24.30;3.88;;;1.50;99.90;;;;;;5039729;28;20446;-75
2023/11/30 11:31:42;;;;;;;2.28;1.52;;;1.60;99.90;;;;;;5005180;28;20038;-75
2023/11/30 11:34:09;;;;;;;3.53;2.20;;;1.60;99.90;;;;;;5037846;28;20507;-76
2023/11/30 11:36:36;;;;;;;22.05;2.25;;;1.60;99.90;;;;;;5037688;28;20038;-75
2023/11/30 11:39:03;;;;;;;18.42;2.42;;;1.60;99.90;;;;;;5041966;28;20228;-74
2023/11/30 11:41:28;;;;;;;4.47;1.75;;;1.60;99.90;;;;;;5014668;28;20084;-76
2023/11/30 11:43:54;;;;;;;12.43;2.20;;;1.60;99.90;;;;;;5010803;28;20042;-74
2023/11/30 11:46:20;;;;;;;5.65;3.55;;;1.60;99.90;;;;;;5048442;28;20404;-76
2023/11/30 11:48:46;;;;;;;3.70;2.00;;;1.60;99.90;;;;;;5045466;28;20052;-76
2023/11/30 11:51:12;;;;;;;25.95;2.72;;;1.50;99.90;;;;;;5058787;28;20169;-75
2023/11/30 11:53:40;;;;;;;4.32;2.45;;;1.50;99.90;;;;;;5027206;28;20038;-75
2023/11/30 11:56:07;;;;;;;3.03;2.10;;;1.50;99.90;;;;;;5002661;28;20034;-75
2023/11/30 11:58:35;;;;;;;2.50;1.95;;;1.50;99.90;;;;;;5036939;28;20038;-75
2023/11/30 12:01:01;;;;;;;4.00;2.65;;;1.60;99.90;;;;;;5037474;28;20050;-74
2023/11/30 12:03:27;;;;;;;2.53;1.50;;;1.60;99.90;;;;;;5006108;28;20128;-75
2023/11/30 12:05:53;;;;;;;2.50;1.63;;;1.60;99.90;;;;;;5033467;28;20049;-75
2023/11/30 12:08:33;;;;;;;1.88;1.27;;;1.70;99.90;;;;;;5005639;28;20412;-75
2023/11/30 12:11:00;;;;;;;3.47;2.28;;;1.60;99.90;;;;;;4997748;28;20045;-74
2023/11/30 12:13:26;;;;;;;2.80;1.98;;;1.60;99.90;;;;;;5041970;28;20037;-74
2023/11/30 12:15:54;;;;;;;6.43;2.55;;;1.50;99.90;;;;;;4998151;28;20084;-74
2023/11/30 12:18:20;;;;;;;4.70;2.40;;;1.60;99.90;;;;;;5025398;28;20046;-73
2023/11/30 12:20:47;;;;;;;3.85;2.03;;;1.50;99.90;;;;;;5037748;28;20051;-72
2023/11/30 12:23:13;;;;;;;2.30;1.65;;;1.60;99.90;;;;;;5034786;28;20046;-73
2023/11/30 12:25:39;;;;;;;2.65;1.42;;;1.60;99.90;;;;;;5007142;28;20038;-73
2023/11/30 12:28:06;;;;;;;3.50;2.13;;;1.60;99.90;;;;;;5007297;28;20038;-73
2023/11/30 12:30:32;;;;;;;2.40;1.58;;;1.60;99.90;;;;;;5004880;28;20046;-73
2023/11/30 12:32:58;;;;;;;2.55;1.50;;;1.60;99.90;;;;;;5003034;28;20073;-73
2023/11/30 12:35:24;;;;;;;5.38;2.83;;;1.60;99.90;;;;;;5039451;28;20062;-73
2023/11/30 12:37:50;;;;;;;3.03;1.67;;;1.60;99.90;;;;;;5009025;28;20458;-72
2023/11/30 12:40:16;;;;;;;4.57;1.60;;;1.60;99.90;;;;;;5040593;28;20034;-73
2023/11/30 12:42:41;;;;;;;1.98;1.60;;;1.60;99.90;;;;;;5037684;28;20122;-72
2023/11/30 12:45:08;;;;;;;3.88;2.63;;;1.70;99.90;;;;;;5041073;28;20528;-72
2023/11/30 12:47:33;;;;;;;4.10;1.95;;;1.70;99.90;;;;;;5045423;28;20053;-71
2023/11/30 12:49:59;;;;;;;3.15;1.73;;;1.70;99.90;;;;;;5037042;28;20510;-71
2023/11/30 12:52:26;;;;;;;5.47;2.65;;;1.80;99.90;;;;;;5001444;28;20034;-72